Myanmar (MM) Flag Myanmar (MM)

105 ASN Networks

ASN Description IPv4 Prefixes IPv6 Prefixes IPv4 Peers IPv6 Peers Date Allocated
AS63852 Myanmar Net 5 0 1 0 2014-11-12
AS132037 HO'NGSA' TELECOM COMPANY LIMITED 3 0 2 0 2016-07-21
AS132686 Amara Communications 5 0 2 0 2016-08-31
AS134840 Myanmar Country Co., Ltd. 8 0 1 0 2015-11-27
AS136205 LINN IT Solution Co., Ltd 2 0 1 0 2020-03-04
AS136210 IT Spectrum Company Limited 4 0 2 0 2017-01-18
AS136783 Spectrum Life Company Limited 3 0 2 0 2017-06-28
AS136919 FACE24 Co.,Ltd 2 0 1 0 2017-08-17
AS136975 Global Technology 4 2 4 1 2017-09-13
AS137431 ZORRO RITZ PUBLIC COMPANY LIMITED 1 1 1 1 2018-01-24
AS137888 Bee Connect Myanmar Co., Ltd. 1 0 1 0 2018-06-01
AS138933 University of Computer Studies, Yangon 1 0 1 0 2019-03-25
AS139766 Protocol Technologies Co.,Ltd t/a KNET 2 0 2 0 2019-11-04
AS139849 Royal Esprit Company Limited 1 1 3 1 2019-12-04
AS140617 THAN PHYO THU MINING COMPANY LIMITED 2 0 2 0 2020-04-30
AS9654 Myanmar Internet Exchange - MMIX 3 1 4 2 2017-11-10
AS132100 Myanmar Speed Net Co.,Ltd 9 0 1 0 2016-08-01
AS132148 HORIZON TELECOM INTERNATIONAL COMPANY LIMITED 5 1 2 0 2016-08-03
AS133440 ST-net 2 0 1 0 2017-06-05
AS134105 Shwe Than Lwin Media Co.,Ltd. 1 0 1 0 2015-03-16
AS135111 Asia Mega Link 3 0 2 0 2018-03-07
AS135300 Myanmar Broadband Telecom Co., Ltd 10 1 9 0 2016-04-02
AS135589 Internet Maekhong Network Company Limited 5 0 4 0 2018-09-04
AS136442 Ocean Wave Communication Co., Ltd 8 0 4 0 2017-03-16
AS136617 Fortune Telecom Company Limited 5 0 2 0 2017-06-01
AS138168 MyanmarAPN 4 0 3 0 2018-08-29
AS138401 MM-VERUMLIB CO., LTD. 1 0 1 0 2018-11-02
AS139595 HTIN HTIN NETWORK COMPANY LIMITED 1 0 1 0 2019-08-15
AS139719 Yar Chang Company Limited 6 0 2 0 2019-10-10
AS141015 Myanmar Link Telecommunication Ltd 1 0 1 0 2020-08-19
AS58952 Frontiir Co. Ltd 32 1 354 106 2013-07-02
AS63998 Kinetic Myanmar Technology 5 0 4 0 2015-06-22
AS133385 Telenor Myanmar 47 2 33 0 2014-02-24
AS134603 Thoolei Co., Ltd. 1 0 1 0 2018-08-16
AS134714 Elite Telecom Public Company Limited 4 0 2 0 2015-10-08
AS134976 Myint & Associates Telecommunications Ltd 10 0 2 0 2015-12-14
AS135307 Golden TMH Telecom Co. Ltd 8 0 7 0 2016-04-05
AS136168 Campana MYTHIC Co. Ltd. 4 1 48 4 2017-01-04
AS136780 MYANMAR INFORMATION HIGHWAY LIMITED 8 0 2 0 2017-06-26
AS137891 Be The First 3 0 2 0 2018-06-05
AS138167 TrueNET 4 0 1 0 2018-08-29
AS139051 AUNG GABAR COMPANY LIMITED 2 0 1 0 2019-05-09
AS139704 AGB Communication Co.Ltd 2 0 1 0 2019-10-04
AS139871 Y Net Public Co. Ltd. 1 0 1 0 2019-12-10
AS9988 Myanma Posts and Telecommunications 39 1 1 1 2000-04-26
AS45558 MYANMA POSTS AND TELECOMMUNICATIONS 3 0 60 6 2008-12-02
AS131322 Yatanarpon Teleport Company Limited 11 1 6 0 2011-06-14
AS132167 OOREDOO MYANMAR 35 0 31 0 2013-09-17
AS135371 Fortune Broadband 10 2 4 3 2016-04-22
AS135427 Myanmar Network Company Limited 4 0 2 0 2016-05-17
AS136177 Yoma Bank Limited 3 0 2 0 2017-01-11
AS136465 Dept. of Information Technology & Cyber Security 1 0 1 0 2017-03-28
AS136480 Myanmar Unilink Communication Company Limited 32 0 6 0 2017-04-04
AS136613 APNIC ASN block 2 0 2 0 2017-05-31
AS136786 Information Beam Company Limited 5 2 1 3 2017-06-28
AS136952 Spectrum Life Company Limited 2 0 1 0 2017-09-01
AS137826 AST SYSTEM TECHNOLOGY COMPANY LIMITED 1 0 2 0 2018-05-11
AS137878 GOLDENET 4 0 2 0 2018-05-28
AS138684 ManauLinks Co.,Ltd. 5 0 2 0 2019-03-08
AS139071 MK Networks Co., Ltd. 3 0 1 0 2019-05-16
AS18399 Yatanarpon Teleport Company Limited 36 0 1 0 2002-11-04
AS132344 SEANET 2 0 1 0 2016-08-17
AS133384 5BB Broadband 8 0 1 0 2014-02-19
AS133524 Global Technology Co., Ltd. 21 0 15 0 2014-06-06
AS134736 NTT Communications (Thailand) Co., Ltd. (Yangon Branch) 7 0 4 0 2015-10-19
AS134739 AGB Communication Co.Ltd 17 0 12 0 2015-10-20
AS135149 Myanmar Technology Gateway Co., Ltd 1 0 2 0 2016-03-07
AS135405 WELINK 6 0 3 0 2016-05-06
AS135433 KBZ Gateway Company Ltd 8 0 3 0 2016-05-18
AS135529 FPT MYANMAR COMPANY LIMITED 8 0 1 0 2016-06-03
AS136137 Terabit Wave Company Limited 2 0 1 0 2016-12-08
AS136255 Telecom International Myanmar Co., Ltd 45 124 35 15 2017-02-08
AS136474 Marga Global Telecom Limited 6 0 1 0 2017-03-31
AS137861 Myanmar World Distribution Telecommunication Company Limited 1 0 1 0 2018-05-22
AS138158 Serge Pun & Associate (Myanmar) Ltd. 1 0 1 0 2018-08-24
AS138634 MYNET SOLUTIONS COMPANY LIMITED 2 0 2 0 2019-02-21
AS139206 Pan Asia Majestic Eagle Ltd 1 0 1 0 2019-06-04
AS139711 KANBAWZA BANK LIMITED 3 0 2 0 2019-10-09
AS139804 RED PALM COMPANY LIMITED 1 0 1 0 2019-11-19
AS139822 GNE Company Limited 1 0 2 0 2019-11-26
AS140091 SHWE MAHAR MAE KHONG INDUSTRIAL COMPANY LIMITED 2 0 2 0 2020-02-10
AS140552 Co-operative Bank Public Company Limited 3 0 2 0 2020-04-09